Time;durP1;ratioP1;P1;durP2;ratioP2;P2;SDS_P1;SDS_P2;PMS_P1;PMS_P2;Temp;Humidity;BMP_temperature;BMP_pressure;BME280_temperature;BME280_humidity;BME280_pressure;Samples;Min_cycle;Max_cycle;Signal;HPM_P1;HPM_P2
2023/10/14 07:01:40;;;;;;;1.03;0.93;;;11.00;99.90;14.10;100948.00;;;;6167701;22;1492458;-67
2023/10/14 07:04:24;;;;;;;0.67;0.67;;;11.30;99.90;13.40;100963.00;;;;6221082;23;20179;-67
2023/10/14 07:07:09;;;;;;;0.70;0.70;;;11.20;99.90;13.40;100970.00;;;;6246085;23;20154;-67
2023/10/14 07:09:38;;;;;;;0.80;0.80;;;11.20;99.90;13.70;100963.00;;;;6247635;22;20157;-67
2023/10/14 07:15:38;;;;;;;1.03;0.93;;;11.20;99.90;13.80;100937.00;;;;6244608;23;20197;-67
2023/10/14 07:18:05;;;;;;;0.50;0.50;;;11.40;99.90;13.00;100983.00;;;;6220589;23;20251;-67
2023/10/14 07:20:32;;;;;;;2.90;0.90;;;11.20;99.90;13.70;100975.00;;;;6245917;23;20145;-67
2023/10/14 07:23:03;;;;;;;0.73;0.73;;;11.30;99.90;14.00;100989.00;;;;6220850;23;20239;-67
2023/10/14 07:25:54;;;;;;;0.93;0.93;;;11.50;99.90;13.50;100997.00;;;;6244876;23;20589;-68
2023/10/14 07:28:20;;;;;;;1.80;1.70;;;11.50;99.90;13.90;100994.00;;;;6223773;23;20239;-68
2023/10/14 07:30:51;;;;;;;0.43;0.43;;;11.70;99.90;13.40;100967.00;;;;6219959;23;20188;-68
2023/10/14 07:33:21;;;;;;;0.53;0.53;;;11.50;99.90;13.90;101005.00;;;;6220801;23;20516;-68
2023/10/14 07:35:47;;;;;;;1.80;1.47;;;11.70;99.90;14.70;101020.00;;;;6221068;23;20192;-68
2023/10/14 07:39:27;;;;;;;1.40;1.30;;;12.00;99.90;14.70;101016.00;;;;6220639;23;20163;-68
2023/10/14 07:41:58;;;;;;;0.20;0.20;;;12.00;99.90;14.40;100991.00;;;;6244897;23;20252;-68
2023/10/14 07:45:10;;;;;;;2.63;2.43;;;12.20;99.90;14.60;101033.00;;;;6246135;23;20471;-68
2023/10/14 07:48:35;;;;;;;0.73;0.63;;;12.30;99.90;14.80;101046.00;;;;6245766;23;20142;-68
2023/10/14 07:51:06;;;;;;;3.67;1.93;;;12.40;99.90;14.40;101046.00;;;;6219939;23;20167;-68
2023/10/14 07:53:41;;;;;;;2.00;1.90;;;12.40;99.90;14.90;101058.00;;;;6245905;23;20586;-68
2023/10/14 07:56:53;;;;;;;11.27;2.97;;;12.50;99.90;15.50;101076.00;;;;6218751;23;20163;-68
2023/10/14 07:59:37;;;;;;;0.63;0.40;;;12.80;99.90;15.60;101077.00;;;;6220162;23;20222;-68
2023/10/14 08:02:13;;;;;;;2.23;0.73;;;13.10;99.90;15.50;101076.00;;;;6219835;23;20237;-67
2023/10/14 08:04:45;;;;;;;5.40;2.03;;;13.10;99.90;16.20;101101.00;;;;6221003;23;20212;-67
2023/10/14 08:07:14;;;;;;;0.50;0.50;;;13.50;99.90;15.70;101100.00;;;;6245683;23;20184;-67
2023/10/14 08:09:47;;;;;;;1.23;0.97;;;13.40;99.90;15.70;101106.00;;;;6245069;23;20149;-68
2023/10/14 08:12:18;;;;;;;1.80;1.67;;;13.50;99.90;16.30;101112.00;;;;6220169;23;20184;-67
2023/10/14 08:14:47;;;;;;;1.37;1.27;;;13.60;99.90;16.70;101114.00;;;;6220750;23;20223;-68
2023/10/14 08:17:23;;;;;;;0.20;0.20;;;13.80;99.90;15.80;101110.00;;;;6244813;23;20171;-67
2023/10/14 08:19:50;;;;;;;0.30;0.30;;;13.60;99.90;16.60;101110.00;;;;6244366;23;20520;-68
2023/10/14 08:22:24;;;;;;;2.33;1.10;;;13.80;99.90;17.10;101096.00;;;;6245878;23;20178;-68
2023/10/14 08:24:51;;;;;;;4.20;1.10;;;14.10;99.90;17.50;101140.00;;;;6244578;23;20144;-68
2023/10/14 08:27:25;;;;;;;4.93;0.90;;;14.50;99.90;16.60;101143.00;;;;6220229;23;20325;-67
2023/10/14 08:30:10;;;;;;;0.27;0.27;;;14.40;99.90;16.60;101143.00;;;;6244641;23;20161;-68
2023/10/14 08:32:52;;;;;;;0.10;0.10;;;14.20;99.90;17.20;101155.00;;;;6245306;23;20170;-68
2023/10/14 08:35:31;;;;;;;0.30;0.23;;;14.40;99.90;17.30;101166.00;;;;6245506;23;20586;-68
2023/10/14 08:37:57;;;;;;;2.90;1.83;;;14.70;99.90;17.30;101186.00;;;;6242779;23;20170;-68
2023/10/14 08:40:36;;;;;;;0.80;0.80;;;15.00;99.90;17.30;101163.00;;;;6219039;23;20606;-69
2023/10/14 08:43:07;;;;;;;6.43;1.37;;;14.60;99.90;17.80;101173.00;;;;6245099;23;20164;-68
2023/10/14 08:45:54;;;;;;;0.50;0.37;;;15.00;99.90;18.50;101196.00;;;;6219748;23;20166;-68
2023/10/14 08:48:27;;;;;;;0.30;0.30;;;15.50;99.90;17.50;101221.00;;;;6220204;23;20587;-69
2023/10/14 08:51:02;;;;;;;0.83;0.50;;;15.20;99.90;18.80;101199.00;;;;6245535;23;20142;-68
2023/10/14 08:53:40;;;;;;;0.10;0.10;;;15.60;99.90;20.10;101253.00;;;;6245653;23;20173;-69
2023/10/14 08:56:12;;;;;;;0.20;0.20;;;16.40;99.90;19.90;101270.00;;;;6244091;23;20631;-66
2023/10/14 08:59:00;;;;;;;0.40;0.40;;;16.40;99.90;21.70;101270.00;;;;6245318;23;20243;-68
2023/10/14 09:01:52;;;;;;;1.33;0.63;;;17.10;99.90;22.40;101238.00;;;;6245139;23;20230;-73
2023/10/14 09:04:29;;;;;;;1.83;1.07;;;17.90;99.90;19.70;101325.00;;;;6243342;23;20176;-68
2023/10/14 09:07:16;;;;;;;0.80;0.43;;;17.40;99.90;19.10;101336.00;;;;6219940;23;20165;-69
2023/10/14 09:10:07;;;;;;;0.10;0.10;;;16.60;99.90;19.90;101314.00;;;;6245073;23;20183;-68
2023/10/14 09:12:47;;;;;;;1.90;0.67;;;16.30;99.90;21.20;101282.00;;;;6245165;23;20281;-68
2023/10/14 09:15:44;;;;;;;2.80;1.10;;;17.00;99.90;19.10;101329.00;;;;6219469;23;20168;-69
2023/10/14 09:18:32;;;;;;;5.20;1.77;;;16.80;99.90;18.30;101326.00;;;;6219864;23;20167;-69
2023/10/14 09:21:45;;;;;;;5.03;1.50;;;15.90;99.90;18.10;101300.00;;;;6244988;23;20136;-68
2023/10/14 09:24:18;;;;;;;3.67;1.20;;;15.40;99.90;18.10;101310.00;;;;6219319;23;20677;-69
2023/10/14 09:26:46;;;;;;;0.10;0.10;;;15.60;99.90;20.50;101300.00;;;;6244455;23;20154;-69
2023/10/14 09:29:12;;;;;;;0.73;0.63;;;16.40;99.90;20.00;101329.00;;;;6245715;22;20148;-69
2023/10/14 09:31:40;;;;;;;6.63;1.63;;;16.90;99.90;18.60;101322.00;;;;6244053;22;20525;-68
2023/10/14 09:34:21;;;;;;;0.30;0.30;;;16.10;99.90;20.80;101314.00;;;;6242478;23;20149;-68
2023/10/14 09:37:31;;;;;;;0.20;0.20;;;16.50;99.90;20.80;101322.00;;;;6243178;23;20194;-69
2023/10/14 09:40:35;;;;;;;0.73;0.67;;;16.90;99.90;20.30;101338.00;;;;6218176;23;20222;-69
2023/10/14 09:43:48;;;;;;;0.10;0.10;;;17.30;99.90;21.80;101328.00;;;;6244234;23;20165;-68
2023/10/14 09:46:17;;;;;;;0.10;0.10;;;17.50;99.90;23.30;101292.00;;;;6243891;23;20250;-68
2023/10/14 09:49:10;;;;;;;0.10;0.10;;;18.60;99.90;24.10;101289.00;;;;6218321;23;20160;-69
2023/10/14 09:52:42;;;;;;;0.10;0.10;;;19.40;99.90;23.90;101264.00;;;;6218620;23;20156;-68
2023/10/14 09:55:26;;;;;;;0.10;0.10;;;19.80;99.90;23.50;101294.00;;;;6243552;23;20168;-70
2023/10/14 09:57:55;;;;;;;0.87;0.87;;;19.50;99.90;22.40;101349.00;;;;6218452;23;20155;-69
2023/10/14 10:00:22;;;;;;;0.27;0.27;;;19.00;99.90;22.40;101352.00;;;;6242007;23;20168;-70
2023/10/14 10:02:52;;;;;;;0.20;0.20;;;18.40;99.90;21.30;101366.00;;;;6242373;23;20565;-70
2023/10/14 10:05:37;;;;;;;0.20;0.20;;;17.70;99.90;20.90;101372.00;;;;6244197;23;20250;-69
2023/10/14 10:08:39;;;;;;;0.20;0.20;;;17.10;99.90;20.70;101397.00;;;;6242607;23;20239;-69
2023/10/14 10:11:23;;;;;;;0.10;0.10;;;16.80;99.90;20.30;101399.00;;;;6244027;23;20163;-72
2023/10/14 10:13:57;;;;;;;0.20;0.20;;;16.40;99.90;20.40;101414.00;;;;6246224;22;20197;-69
2023/10/14 10:16:40;;;;;;;0.30;0.30;;;16.40;99.90;20.40;101411.00;;;;6220570;23;20164;-69
2023/10/14 10:19:29;;;;;;;0.10;0.10;;;16.50;99.90;19.40;101422.00;;;;6243984;23;20134;-69
2023/10/14 10:34:07;;;;;;;0.10;0.10;;;13.80;99.90;17.70;101312.00;;;;5096185;27;1489687;-69
2023/10/14 10:37:04;;;;;;;0.10;0.10;;;14.10;99.90;18.90;101321.00;;;;5012057;28;20226;-70
2023/10/14 10:40:10;;;;;;;0.20;0.20;;;14.80;99.90;19.60;101352.00;;;;5034592;28;20392;-70
2023/10/14 10:43:37;;;;;;;0.20;0.20;;;15.50;99.90;20.50;101370.00;;;;5024913;28;20191;-70
2023/10/14 10:46:45;;;;;;;0.10;0.10;;;16.00;99.90;21.20;101396.00;;;;4999724;28;20227;-70
2023/10/14 10:49:49;;;;;;;0.30;0.30;;;16.60;99.90;21.50;101389.00;;;;5044479;28;20513;-71
2023/10/14 10:52:24;;;;;;;0.10;0.10;;;17.10;99.90;21.70;101404.00;;;;5113560;28;20199;-71
2023/10/14 10:55:12;;;;;;;0.17;0.17;;;17.30;99.90;21.40;101415.00;;;;5113538;28;20211;-71
2023/10/14 10:57:46;;;;;;;0.20;0.20;;;17.30;99.90;21.30;101420.00;;;;5123601;28;20183;-70
2023/10/14 11:00:17;;;;;;;0.10;0.10;;;17.20;99.90;21.30;101423.00;;;;5119044;28;20189;-71
2023/10/14 11:02:56;;;;;;;2.47;2.30;;;17.10;99.90;20.80;101433.00;;;;5123710;28;20258;-70
2023/10/14 11:05:24;;;;;;;0.70;0.70;;;16.90;99.90;20.40;101439.00;;;;5109495;28;20191;-71
2023/10/14 11:12:14;;;;;;;2.23;0.67;;;16.50;99.90;16.90;101474.00;;;;5124340;28;20217;-69
2023/10/14 11:15:26;;;;;;;0.50;0.50;;;15.00;99.90;18.50;101460.00;;;;5122971;28;20186;-70
2023/10/14 11:18:30;;;;;;;0.10;0.10;;;14.70;99.90;19.50;101448.00;;;;5113036;28;20184;-70
2023/10/14 11:21:02;;;;;;;0.10;0.10;;;15.20;99.90;20.20;101440.00;;;;5113074;28;20194;-70
2023/10/14 11:24:05;;;;;;;0.10;0.10;;;15.80;99.90;20.50;101444.00;;;;5109346;28;20782;-69
2023/10/14 11:27:11;;;;;;;0.10;0.10;;;16.00;99.90;20.80;101446.00;;;;5098240;28;20193;-70
2023/10/14 11:30:13;;;;;;;1.33;1.33;;;16.30;99.90;20.40;101427.00;;;;5096421;28;20524;-70
2023/10/14 11:32:50;;;;;;;0.10;0.10;;;16.30;99.90;21.30;101443.00;;;;5096460;28;20304;-70
2023/10/14 11:36:02;;;;;;;0.10;0.10;;;16.80;99.90;22.00;101429.00;;;;5107805;28;20186;-69
2023/10/14 11:38:32;;;;;;;0.80;0.33;;;17.40;99.90;21.80;101439.00;;;;5115220;28;20234;-70
2023/10/14 11:41:53;;;;;;;0.30;0.30;;;17.90;99.90;21.20;101426.00;;;;5115396;28;20200;-70
2023/10/14 11:44:19;;;;;;;0.10;0.10;;;17.50;99.90;21.40;101453.00;;;;5105539;28;20195;-70
2023/10/14 11:47:28;;;;;;;0.67;0.67;;;17.30;99.90;21.20;101460.00;;;;5101893;28;20272;-69
2023/10/14 11:50:11;;;;;;;0.67;0.60;;;17.10;99.90;21.60;101428.00;;;;5084710;28;20195;-70
2023/10/14 11:53:03;;;;;;;1.23;1.13;;;17.40;99.90;21.70;101443.00;;;;5100172;28;20226;-70
2023/10/14 11:56:27;;;;;;;0.10;0.10;;;17.50;99.90;21.20;101437.00;;;;5101608;28;20218;-70
2023/10/14 11:59:31;;;;;;;0.40;0.40;;;17.30;99.90;21.80;101454.00;;;;5102004;28;20184;-70
2023/10/14 12:02:04;;;;;;;0.10;0.10;;;17.30;99.90;22.10;101441.00;;;;5109208;28;20192;-69
2023/10/14 12:05:06;;;;;;;0.30;0.30;;;17.40;99.90;21.90;101436.00;;;;5104465;28;20196;-70
2023/10/14 12:07:33;;;;;;;0.10;0.10;;;17.70;99.90;22.40;101418.00;;;;5104443;28;20234;-70
2023/10/14 12:10:06;;;;;;;2.33;2.23;;;18.00;99.90;22.50;101423.00;;;;5102266;28;20545;-69
2023/10/14 12:13:14;;;;;;;0.10;0.10;;;18.20;99.90;23.10;101408.00;;;;5101770;28;20206;-70
2023/10/14 12:15:40;;;;;;;0.20;0.20;;;18.50;99.90;23.10;101406.00;;;;5105210;28;20563;-69
2023/10/14 12:18:16;;;;;;;0.10;0.10;;;19.00;99.90;23.10;101403.00;;;;5103296;28;20173;-69
2023/10/14 12:21:17;;;;;;;0.17;0.17;;;19.00;99.90;22.80;101397.00;;;;5101684;28;20191;-70
2023/10/14 12:24:20;;;;;;;0.10;0.10;;;18.80;99.90;22.40;101399.00;;;;5103017;28;20234;-70
2023/10/14 12:26:46;;;;;;;0.10;0.10;;;18.50;99.90;22.20;101429.00;;;;5103087;28;20604;-69
2023/10/14 12:30:00;;;;;;;1.50;0.97;;;18.30;99.90;21.30;101458.00;;;;5087039;28;20517;-69
2023/10/14 12:35:18;;;;;;;1.20;0.20;;;17.70;99.90;21.40;101454.00;;;;5104340;28;20209;-69
2023/10/14 12:37:44;;;;;;;1.90;0.37;;;17.60;99.90;21.70;101437.00;;;;5103415;28;20173;-70
2023/10/14 12:40:13;;;;;;;0.20;0.20;;;17.60;99.90;21.80;101470.00;;;;5102833;28;20277;-70
2023/10/14 12:42:45;;;;;;;0.10;0.10;;;17.50;99.90;22.00;101464.00;;;;5101286;28;20194;-71
2023/10/14 12:45:13;;;;;;;0.40;0.40;;;17.60;99.90;21.40;101476.00;;;;5098095;28;20181;-70
2023/10/14 12:51:30;;;;;;;0.10;0.10;;;17.80;99.90;22.90;101446.00;;;;5102990;28;20195;-70
2023/10/14 12:54:00;;;;;;;0.10;0.10;;;18.40;99.90;21.80;101460.00;;;;5101906;28;20257;-70
2023/10/14 12:56:47;;;;;;;0.20;0.20;;;18.40;99.90;21.50;101491.00;;;;5102740;28;20183;-70
2023/10/14 12:59:32;;;;;;;0.93;0.93;;;17.60;99.90;21.70;101487.00;;;;5100217;28;20192;-71
2023/10/14 13:02:03;;;;;;;0.20;0.20;;;17.50;99.90;20.80;101480.00;;;;5104891;28;20582;-70
2023/10/14 13:05:25;;;;;;;0.10;0.10;;;17.10;99.90;21.40;101500.00;;;;5093047;28;20215;-70
2023/10/14 13:08:03;;;;;;;0.10;0.10;;;17.10;99.90;21.50;101471.00;;;;5107562;28;20423;-70
2023/10/14 13:10:32;;;;;;;0.10;0.10;;;17.20;99.90;21.70;101503.00;;;;5110228;28;20191;-70
2023/10/14 13:13:00;;;;;;;0.10;0.10;;;17.20;99.90;21.80;101502.00;;;;5103772;28;20210;-70
2023/10/14 13:15:29;;;;;;;1.53;0.40;;;17.40;99.90;21.20;101509.00;;;;5098545;28;20208;-70
2023/10/14 13:17:57;;;;;;;0.10;0.10;;;17.30;99.90;21.20;101483.00;;;;5100818;28;21009;-70
2023/10/14 13:20:34;;;;;;;0.10;0.10;;;17.40;99.90;21.50;101522.00;;;;5085329;28;20196;-71
2023/10/14 13:23:14;;;;;;;0.10;0.10;;;17.40;99.90;21.70;101514.00;;;;5101711;28;20194;-70
2023/10/14 13:25:40;;;;;;;0.10;0.10;;;17.40;99.90;21.70;101508.00;;;;5101964;28;20214;-71
2023/10/14 13:28:09;;;;;;;0.10;0.10;;;17.60;99.90;21.50;101506.00;;;;5102939;28;20187;-70
2023/10/14 13:30:47;;;;;;;0.30;0.30;;;17.50;99.90;21.20;101504.00;;;;5102677;28;20204;-71
2023/10/14 13:33:16;;;;;;;0.10;0.10;;;17.20;99.90;21.00;101524.00;;;;5084932;28;20212;-70
2023/10/14 13:35:45;;;;;;;0.10;0.10;;;17.00;99.90;21.30;101517.00;;;;5100999;28;20192;-69
2023/10/14 13:38:14;;;;;;;0.17;0.17;;;17.10;99.90;20.20;101542.00;;;;5101974;28;20195;-69
2023/10/14 13:41:02;;;;;;;0.10;0.10;;;16.70;99.90;21.10;101534.00;;;;5100533;28;20221;-70
2023/10/14 13:43:50;;;;;;;0.10;0.10;;;16.80;99.90;20.40;101558.00;;;;5101488;28;20187;-69
2023/10/14 13:46:50;;;;;;;0.10;0.10;;;16.70;99.90;20.70;101546.00;;;;5099357;28;20303;-69
2023/10/14 13:49:31;;;;;;;0.10;0.10;;;16.60;99.90;21.00;101523.00;;;;5081382;28;20196;-70
2023/10/14 13:51:58;;;;;;;0.10;0.10;;;16.60;99.90;21.00;101525.00;;;;5096571;28;20227;-69
2023/10/14 13:54:24;;;;;;;1.90;0.63;;;16.70;99.90;20.10;101572.00;;;;5097539;28;20200;-69
2023/10/14 13:56:55;;;;;;;0.10;0.10;;;16.60;99.90;20.30;101570.00;;;;5098038;28;20643;-69
2023/10/14 13:59:34;;;;;;;5.27;0.40;;;16.60;99.90;19.40;101597.00;;;;5097012;28;20603;-69
2023/10/14 14:02:04;;;;;;;0.10;0.10;;;16.10;99.90;19.80;101599.00;;;;5100594;28;20199;-69
2023/10/14 14:04:33;;;;;;;0.20;0.20;;;16.20;99.90;21.00;101555.00;;;;5102411;28;20207;-69
2023/10/14 14:07:01;;;;;;;3.77;0.50;;;16.40;99.90;20.40;101576.00;;;;5102526;28;20304;-69
2023/10/14 14:09:30;;;;;;;1.33;0.50;;;16.60;99.90;19.90;101598.00;;;;5100593;28;20177;-68
2023/10/14 14:11:59;;;;;;;0.10;0.10;;;16.20;99.90;20.00;101587.00;;;;5102951;28;20233;-69
2023/10/14 14:14:25;;;;;;;0.20;0.20;;;16.20;99.90;19.90;101593.00;;;;5100518;28;20220;-69
2023/10/14 14:16:52;;;;;;;3.50;1.50;;;16.10;99.90;20.00;101594.00;;;;5101829;28;20187;-69
2023/10/14 14:19:19;;;;;;;0.13;0.13;;;16.00;99.90;19.60;101598.00;;;;5085496;28;20189;-70
2023/10/14 14:22:05;;;;;;;0.20;0.20;;;15.90;99.90;19.70;101601.00;;;;5103271;28;20212;-69
2023/10/14 14:24:36;;;;;;;1.00;0.47;;;15.80;99.90;18.50;101632.00;;;;5094146;28;20191;-69
2023/10/14 14:27:11;;;;;;;0.13;0.13;;;15.50;99.90;19.60;101587.00;;;;5084390;28;20567;-69
2023/10/14 14:29:45;;;;;;;0.30;0.30;;;15.50;99.90;18.20;101646.00;;;;5101237;28;20188;-69
2023/10/14 14:32:14;;;;;;;1.37;0.73;;;15.30;99.90;18.60;101645.00;;;;5099829;28;20265;-69
2023/10/14 14:34:40;;;;;;;0.40;0.40;;;15.20;99.90;18.00;101658.00;;;;5101298;28;20393;-69
2023/10/14 14:37:12;;;;;;;5.23;0.43;;;15.10;99.90;18.90;101645.00;;;;5101941;28;20528;-69
2023/10/14 14:39:54;;;;;;;3.33;0.53;;;15.10;99.90;17.50;101674.00;;;;5102022;28;20220;-69
2023/10/14 14:42:29;;;;;;;0.13;0.13;;;14.60;99.90;19.30;101638.00;;;;5084513;28;20220;-70
2023/10/14 14:45:06;;;;;;;0.20;0.20;;;15.00;99.90;18.20;101655.00;;;;5101351;28;20196;-69
2023/10/14 14:47:43;;;;;;;0.20;0.20;;;14.90;99.90;18.00;101623.00;;;;5099672;28;20176;-69
2023/10/14 14:50:15;;;;;;;0.20;0.20;;;14.90;99.90;18.80;101658.00;;;;5094779;28;20211;-70
2023/10/14 14:52:50;;;;;;;0.40;0.40;;;15.00;99.90;18.80;101657.00;;;;5101174;28;20202;-69
2023/10/14 14:55:30;;;;;;;0.20;0.20;;;15.20;99.90;17.50;101669.00;;;;5094865;28;20198;-69
2023/10/14 14:58:04;;;;;;;2.63;1.70;;;14.70;99.90;18.50;101628.00;;;;5103369;28;20191;-69
2023/10/14 15:00:33;;;;;;;0.47;0.47;;;14.90;99.90;17.90;101628.00;;;;5097749;28;20189;-67
2023/10/14 15:03:12;;;;;;;2.67;0.93;;;14.70;99.90;18.30;101596.00;;;;5096626;28;20188;-69
2023/10/14 15:06:01;;;;;;;1.23;0.20;;;14.90;99.90;16.80;101558.00;;;;5086566;28;20191;-69
2023/10/14 15:09:14;;;;;;;1.77;0.73;;;14.30;99.90;17.70;101533.00;;;;5097689;28;20184;-69
2023/10/14 15:12:18;;;;;;;0.70;0.70;;;14.40;99.90;18.40;101528.00;;;;5111845;28;20295;-69
2023/10/14 15:15:09;;;;;;;0.20;0.20;;;14.60;99.90;18.60;101553.00;;;;5094097;28;20724;-68
2023/10/14 15:17:37;;;;;;;5.63;0.83;;;15.20;99.90;16.70;101528.00;;;;5101597;28;20180;-68
2023/10/14 15:20:17;;;;;;;8.10;1.67;;;14.60;99.90;15.70;101482.00;;;;5094892;28;20778;-69
2023/10/14 15:23:07;;;;;;;2.67;0.70;;;13.70;99.90;15.90;101519.00;;;;5102435;28;20259;-69
2023/10/14 15:25:39;;;;;;;0.67;0.50;;;13.20;99.90;14.80;101489.00;;;;5088508;28;20212;-68
2023/10/14 15:28:11;;;;;;;0.20;0.20;;;12.60;99.90;15.10;101496.00;;;;5104656;28;20629;-68
2023/10/14 15:30:46;;;;;;;0.30;0.30;;;12.40;99.90;16.40;101493.00;;;;5115836;28;20181;-68
2023/10/14 15:33:22;;;;;;;0.20;0.20;;;12.70;99.90;17.10;101515.00;;;;5114739;28;20212;-68
2023/10/14 15:36:11;;;;;;;0.20;0.20;;;13.00;99.90;16.90;101489.00;;;;5087508;28;20220;-68
2023/10/14 15:39:16;;;;;;;0.20;0.20;;;13.40;99.90;15.80;101503.00;;;;5017233;28;20279;-68
2023/10/14 15:42:44;;;;;;;2.87;0.70;;;13.10;99.90;16.40;101507.00;;;;5096568;28;20279;-68
2023/10/14 15:45:48;;;;;;;0.70;0.70;;;12.90;99.90;16.50;101507.00;;;;5086700;28;20193;-69
2023/10/14 15:49:09;;;;;;;0.30;0.30;;;12.90;99.90;15.20;101503.00;;;;5107098;28;20696;-68
2023/10/14 15:55:27;;;;;;;1.27;0.73;;;12.40;99.90;15.30;101479.00;;;;5106617;28;20219;-68
2023/10/14 15:57:58;;;;;;;0.20;0.20;;;12.30;99.90;15.00;101494.00;;;;5112247;27;20173;-68
2023/10/14 16:01:17;;;;;;;3.77;1.07;;;12.30;99.90;14.70;101498.00;;;;5098829;28;20205;-67
2023/10/14 16:07:42;;;;;;;0.20;0.20;;;12.10;99.90;14.90;101509.00;;;;5096575;28;20228;-67
2023/10/14 16:10:41;;;;;;;0.50;0.50;;;12.20;99.90;15.10;101508.00;;;;5090374;28;20189;-67
2023/10/14 16:13:50;;;;;;;0.20;0.20;;;12.10;99.90;14.80;101467.00;;;;5107221;28;20201;-68
2023/10/14 16:17:08;;;;;;;0.30;0.30;;;12.10;99.90;14.80;101517.00;;;;5107633;28;20250;-67
2023/10/14 16:20:13;;;;;;;0.73;0.73;;;12.00;99.90;15.10;101504.00;;;;5093489;28;20216;-67
2023/10/14 16:23:23;;;;;;;1.00;1.00;;;12.00;99.90;15.20;101524.00;;;;5094218;28;20201;-68
2023/10/14 16:26:26;;;;;;;0.73;0.73;;;12.20;99.90;14.90;101508.00;;;;5072591;28;20653;-68
2023/10/14 16:29:33;;;;;;;1.23;1.20;;;12.00;99.90;14.80;101516.00;;;;5066494;28;20212;-67
2023/10/14 16:32:27;;;;;;;1.70;0.90;;;12.10;99.90;14.50;101522.00;;;;5060200;28;20671;-67
2023/10/14 16:35:41;;;;;;;0.47;0.43;;;12.00;99.90;14.60;101523.00;;;;5059213;28;20188;-67
2023/10/14 16:38:32;;;;;;;0.50;0.50;;;12.00;99.90;14.60;101528.00;;;;5094847;28;20204;-67
2023/10/14 16:41:41;;;;;;;1.30;0.60;;;12.00;99.90;14.90;101528.00;;;;5099680;28;20647;-67
2023/10/14 16:44:47;;;;;;;0.20;0.20;;;12.00;99.90;15.30;101529.00;;;;5105729;28;20206;-67
2023/10/14 16:47:57;;;;;;;0.37;0.37;;;12.10;99.90;14.90;101534.00;;;;5099910;28;20192;-67
2023/10/14 16:51:10;;;;;;;0.53;0.53;;;12.20;99.90;15.50;101529.00;;;;5094296;28;20326;-67
2023/10/14 16:54:14;;;;;;;1.60;1.40;;;12.20;99.90;15.70;101534.00;;;;5101618;28;20357;-68
2023/10/14 16:57:17;;;;;;;0.20;0.20;;;12.30;99.90;15.10;101538.00;;;;5100006;28;20219;-67
2023/10/14 17:00:09;;;;;;;1.20;1.20;;;12.20;99.90;15.30;101545.00;;;;5088173;28;20223;-67
2023/10/14 17:03:12;;;;;;;0.70;0.70;;;12.20;99.90;15.90;101512.00;;;;5104265;28;20184;-67
2023/10/14 17:06:20;;;;;;;8.93;1.50;;;12.40;99.90;16.10;101547.00;;;;5104120;28;20437;-67
2023/10/14 17:09:16;;;;;;;0.20;0.20;;;12.50;99.90;15.50;101541.00;;;;5099719;28;20193;-67
2023/10/14 17:12:26;;;;;;;2.53;1.40;;;12.40;99.90;15.70;101545.00;;;;5102175;28;20197;-67
2023/10/14 17:15:27;;;;;;;0.40;0.40;;;12.40;99.90;15.30;101552.00;;;;5104190;28;20650;-67
2023/10/14 17:18:23;;;;;;;0.30;0.30;;;12.30;99.90;15.60;101511.00;;;;5074782;28;20195;-67
2023/10/14 17:21:36;;;;;;;0.30;0.30;;;12.10;99.90;15.30;101562.00;;;;5085951;28;20224;-67
2023/10/14 17:24:33;;;;;;;0.70;0.70;;;12.00;99.90;16.30;101585.00;;;;5085146;28;20681;-67
2023/10/14 17:27:43;;;;;;;0.30;0.30;;;12.40;99.90;16.50;101582.00;;;;5078317;28;20191;-67
2023/10/14 17:30:12;;;;;;;0.30;0.30;;;12.50;99.90;17.00;101590.00;;;;5098780;28;20730;-67
2023/10/14 17:32:59;;;;;;;0.40;0.40;;;12.80;99.90;16.40;101584.00;;;;5092202;28;20218;-67
2023/10/14 17:35:41;;;;;;;0.30;0.30;;;12.70;99.90;15.50;101579.00;;;;5098772;28;20182;-67
2023/10/14 17:38:41;;;;;;;0.40;0.40;;;12.30;99.90;16.20;101595.00;;;;5096740;28;20186;-67
2023/10/14 17:41:33;;;;;;;0.33;0.33;;;12.30;99.90;15.80;101593.00;;;;5079488;28;20200;-67
2023/10/14 17:44:00;;;;;;;0.40;0.40;;;12.10;99.90;16.40;101601.00;;;;5082755;28;20196;-67
2023/10/14 17:46:26;;;;;;;0.40;0.40;;;12.10;99.90;16.30;101601.00;;;;5092625;28;20192;-67
2023/10/14 17:48:53;;;;;;;0.40;0.40;;;12.20;99.90;16.10;101603.00;;;;5104755;28;20269;-67
2023/10/14 17:51:19;;;;;;;0.40;0.40;;;12.10;99.90;16.10;101607.00;;;;5099670;28;20190;-67
2023/10/14 17:54:10;;;;;;;0.40;0.40;;;12.10;99.90;15.90;101604.00;;;;5090384;28;20185;-67
2023/10/14 17:57:10;;;;;;;0.40;0.40;;;12.00;99.90;16.10;101620.00;;;;5111103;28;20577;-67
2023/10/14 18:00:07;;;;;;;0.40;0.40;;;12.10;99.90;15.50;101613.00;;;;5093633;28;20181;-67
2023/10/14 18:02:57;;;;;;;0.50;0.50;;;12.00;99.90;15.70;101616.00;;;;5100794;28;20237;-67
2023/10/14 18:05:25;;;;;;;2.30;2.10;;;11.90;99.90;15.80;101614.00;;;;5085205;28;20184;-67
2023/10/14 18:08:19;;;;;;;0.50;0.50;;;11.80;99.90;16.20;101630.00;;;;5098001;28;20264;-67
2023/10/14 18:10:50;;;;;;;0.50;0.50;;;12.00;99.90;16.20;101627.00;;;;5109050;28;20181;-67
2023/10/14 18:13:32;;;;;;;1.57;1.47;;;12.10;99.90;16.20;101627.00;;;;5086093;28;20558;-67
2023/10/14 18:16:35;;;;;;;0.40;0.40;;;12.20;99.90;16.60;101643.00;;;;5090520;28;20230;-67
2023/10/14 18:19:45;;;;;;;1.33;1.17;;;12.60;99.90;15.00;101634.00;;;;5091933;28;20300;-67
2023/10/14 18:22:55;;;;;;;0.60;0.60;;;12.40;99.90;14.70;101632.00;;;;5111749;28;20645;-67
2023/10/14 18:26:24;;;;;;;0.40;0.40;;;12.00;99.90;15.60;101617.00;;;;5100411;28;20192;-67
2023/10/14 18:29:37;;;;;;;0.30;0.30;;;12.00;99.90;16.20;101639.00;;;;5093070;28;20187;-67
2023/10/14 18:32:56;;;;;;;0.40;0.40;;;12.10;99.90;16.70;101639.00;;;;5079979;28;20220;-67
2023/10/14 18:36:21;;;;;;;0.40;0.40;;;12.50;99.90;15.60;101623.00;;;;5086973;28;20196;-67
2023/10/14 18:39:45;;;;;;;0.40;0.40;;;12.50;99.90;15.70;101623.00;;;;5076251;28;20193;-67
2023/10/14 18:43:11;;;;;;;0.30;0.30;;;12.10;99.90;15.40;101613.00;;;;5076036;28;20205;-67
2023/10/14 18:46:24;;;;;;;0.30;0.30;;;11.90;99.90;16.20;101629.00;;;;5077734;28;20719;-67
2023/10/14 18:49:17;;;;;;;0.40;0.40;;;12.00;99.90;16.30;101636.00;;;;5092807;28;20180;-67
2023/10/14 18:52:13;;;;;;;7.67;6.13;;;12.40;99.90;16.30;101631.00;;;;5105089;28;20208;-67
2023/10/14 18:55:28;;;;;;;0.40;0.40;;;12.40;99.90;14.70;101618.00;;;;5101286;28;20195;-67
2023/10/14 18:58:20;;;;;;;4.87;4.47;;;11.80;99.90;15.50;101619.00;;;;5085446;28;20278;-67
2023/10/14 19:01:41;;;;;;;0.30;0.30;;;11.80;99.90;15.20;101591.00;;;;5088541;28;20193;-67
2023/10/14 19:04:58;;;;;;;0.30;0.30;;;11.80;99.90;15.00;101636.00;;;;5098756;28;20177;-67
2023/10/14 19:07:48;;;;;;;0.30;0.30;;;11.70;99.90;15.70;101607.00;;;;5097179;28;20188;-67
2023/10/14 19:10:52;;;;;;;0.40;0.40;;;11.80;99.90;16.00;101632.00;;;;5095989;28;20226;-67
2023/10/14 19:14:00;;;;;;;0.40;0.40;;;12.10;99.90;15.90;101625.00;;;;5086198;28;20216;-67
2023/10/14 19:17:09;;;;;;;0.40;0.40;;;12.10;99.90;16.10;101632.00;;;;5081270;28;20196;-67
2023/10/14 19:20:13;;;;;;;0.40;0.40;;;12.20;99.90;15.50;101645.00;;;;5097797;28;20182;-68
2023/10/14 19:23:23;;;;;;;0.40;0.40;;;12.20;99.90;16.20;101656.00;;;;5102386;28;20202;-67
2023/10/14 19:26:44;;;;;;;0.40;0.40;;;12.10;99.90;16.20;101660.00;;;;5081429;28;20184;-67
2023/10/14 19:29:47;;;;;;;0.87;0.87;;;12.30;99.90;16.40;101634.00;;;;5091408;28;20252;-67
2023/10/14 19:32:48;;;;;;;0.47;0.47;;;12.40;99.90;15.70;101664.00;;;;5101561;28;20219;-67
2023/10/14 19:35:37;;;;;;;1.17;1.17;;;12.40;99.90;14.80;101655.00;;;;5108931;28;20181;-67
2023/10/14 19:38:17;;;;;;;1.33;0.93;;;12.00;99.90;13.70;101641.00;;;;5111145;28;20191;-67
2023/10/14 19:40:49;;;;;;;0.30;0.30;;;11.30;99.90;13.60;101646.00;;;;5102718;28;20202;-67
2023/10/14 19:43:53;;;;;;;0.37;0.37;;;10.90;99.90;13.90;101605.00;;;;5083108;28;20715;-67
2023/10/14 19:46:19;;;;;;;0.50;0.50;;;10.70;99.90;13.50;101637.00;;;;5100922;28;20199;-66
2023/10/14 19:49:12;;;;;;;0.30;0.30;;;10.70;99.90;14.40;101644.00;;;;5098743;28;20191;-67